Time;durP1;ratioP1;P1;durP2;ratioP2;P2;SDS_P1;SDS_P2;PMS_P1;PMS_P2;Temp;Humidity;BMP_temperature;BMP_pressure;BME280_temperature;BME280_humidity;BME280_pressure;Samples;Min_cycle;Max_cycle;Signal;HPM_P1;HPM_P2
2022/04/18 00:02:25;;;;;;;4.30;3.90;;;9.20;56.90;;;;;;4979327;28;20596;-41
2022/04/18 00:04:52;;;;;;;3.40;3.10;;;9.20;56.90;;;;;;4981442;28;20866;-41
2022/04/18 00:07:19;;;;;;;4.57;4.17;;;9.20;57.50;;;;;;4977286;28;20465;-41
2022/04/18 00:09:45;;;;;;;4.93;3.70;;;9.10;57.80;;;;;;4978185;28;20834;-41
2022/04/18 00:12:12;;;;;;;4.10;3.70;;;9.10;58.30;;;;;;4976629;28;20462;-41
2022/04/18 00:14:39;;;;;;;5.00;4.20;;;9.10;57.80;;;;;;4982830;28;20464;-41
2022/04/18 00:17:09;;;;;;;5.73;3.73;;;9.00;58.00;;;;;;4980726;28;20497;-41
2022/04/18 00:19:37;;;;;;;3.67;3.30;;;9.00;58.30;;;;;;4979262;28;20477;-41
2022/04/18 00:22:05;;;;;;;4.20;3.70;;;9.00;58.40;;;;;;4981675;28;20462;-41
2022/04/18 00:24:32;;;;;;;4.13;2.93;;;9.00;58.40;;;;;;4980379;28;21017;-41
2022/04/18 00:27:00;;;;;;;5.07;3.33;;;8.90;58.50;;;;;;4983590;28;20484;-41
2022/04/18 00:29:27;;;;;;;3.80;2.87;;;8.90;58.60;;;;;;4984037;28;20565;-40
2022/04/18 00:31:54;;;;;;;7.03;3.00;;;8.90;58.30;;;;;;4987744;28;20994;-40
2022/04/18 00:34:22;;;;;;;2.80;2.60;;;8.90;59.00;;;;;;4984202;28;20838;-41
2022/04/18 00:36:49;;;;;;;5.70;3.10;;;8.90;59.00;;;;;;4981290;28;20470;-40
2022/04/18 00:39:16;;;;;;;4.77;3.03;;;8.80;58.90;;;;;;4985513;28;20492;-40
2022/04/18 00:41:43;;;;;;;2.87;2.60;;;8.70;58.80;;;;;;4983343;28;20944;-40
2022/04/18 00:44:10;;;;;;;2.87;2.50;;;8.70;58.90;;;;;;4986192;28;20585;-40
2022/04/18 00:46:36;;;;;;;4.07;2.90;;;8.70;58.80;;;;;;4981871;28;20911;-41
2022/04/18 00:49:03;;;;;;;3.20;2.90;;;8.70;58.60;;;;;;4983981;28;20472;-41
2022/04/18 00:51:30;;;;;;;4.80;3.00;;;8.70;58.70;;;;;;4985028;28;20465;-41
2022/04/18 00:53:57;;;;;;;3.57;2.80;;;8.70;59.10;;;;;;4963932;28;21173;-41
2022/04/18 00:56:25;;;;;;;3.37;3.07;;;8.70;59.10;;;;;;4981075;28;20462;-40
2022/04/18 00:58:53;;;;;;;3.30;2.70;;;8.60;58.90;;;;;;4982558;28;20525;-40
2022/04/18 01:01:20;;;;;;;3.77;3.37;;;8.60;59.20;;;;;;4984425;28;20469;-40
2022/04/18 01:03:47;;;;;;;4.50;3.13;;;8.60;59.00;;;;;;4984267;28;20515;-40
2022/04/18 01:06:15;;;;;;;4.70;3.40;;;8.60;59.10;;;;;;4983276;28;20986;-40
2022/04/18 01:08:42;;;;;;;4.13;3.60;;;8.60;59.00;;;;;;4980639;28;20472;-40
2022/04/18 01:11:10;;;;;;;4.23;3.40;;;8.50;58.90;;;;;;4982389;28;20493;-40
2022/04/18 01:13:45;;;;;;;3.50;2.40;;;8.50;58.80;;;;;;4981507;28;21159;-40
2022/04/18 01:16:13;;;;;;;3.53;2.40;;;8.50;58.70;;;;;;4976507;28;20459;-40
2022/04/18 01:18:40;;;;;;;4.83;2.90;;;8.40;58.80;;;;;;4978984;28;20471;-40
2022/04/18 01:21:08;;;;;;;5.33;2.43;;;8.40;59.40;;;;;;4980183;28;20470;-40
2022/04/18 01:23:36;;;;;;;3.33;2.70;;;8.40;59.50;;;;;;4981808;28;20926;-40
2022/04/18 01:28:58;;;;;;;3.60;2.87;;;8.30;59.70;;;;;;4983311;28;20446;-40
2022/04/18 01:31:27;;;;;;;3.90;3.03;;;8.30;59.70;;;;;;4984651;28;20490;-40
2022/04/18 01:33:53;;;;;;;2.53;2.33;;;8.30;59.90;;;;;;4980410;28;20466;-40
2022/04/18 01:36:20;;;;;;;5.03;3.40;;;8.20;60.00;;;;;;4979674;28;20469;-40
2022/04/18 01:38:47;;;;;;;3.53;2.33;;;8.20;60.30;;;;;;4982442;28;20458;-40
2022/04/18 01:41:14;;;;;;;4.67;3.00;;;8.20;60.60;;;;;;4983721;28;20473;-40
2022/04/18 01:43:41;;;;;;;2.80;2.60;;;8.20;60.90;;;;;;4959769;28;20489;-40
2022/04/18 01:46:08;;;;;;;3.53;2.80;;;8.20;61.10;;;;;;4980638;28;20477;-40
2022/04/18 01:48:35;;;;;;;7.40;2.83;;;8.10;61.00;;;;;;4980018;28;20442;-40
2022/04/18 01:51:01;;;;;;;5.77;3.50;;;8.20;61.20;;;;;;4982803;28;20483;-40
2022/04/18 01:53:30;;;;;;;3.70;3.27;;;8.20;61.00;;;;;;4982605;28;20463;-41
2022/04/18 01:55:58;;;;;;;5.07;2.97;;;8.20;60.80;;;;;;4978438;28;20458;-40
2022/04/18 01:58:24;;;;;;;3.70;3.40;;;8.10;60.80;;;;;;4966533;28;20467;-40
2022/04/18 02:00:51;;;;;;;2.67;2.47;;;8.10;60.60;;;;;;4980567;28;20462;-40
2022/04/18 02:03:18;;;;;;;3.23;2.87;;;8.10;60.80;;;;;;4978825;28;20469;-40
2022/04/18 02:05:47;;;;;;;3.20;2.80;;;8.10;61.00;;;;;;4980118;28;20975;-40
2022/04/18 02:08:14;;;;;;;5.03;3.10;;;8.10;61.00;;;;;;4982362;28;20671;-40
2022/04/18 02:10:41;;;;;;;3.87;3.30;;;8.00;61.00;;;;;;4980570;28;20464;-40
2022/04/18 02:13:08;;;;;;;4.33;3.00;;;8.00;60.80;;;;;;4981631;28;20472;-40
2022/04/18 02:15:35;;;;;;;4.10;2.93;;;8.00;60.80;;;;;;4982119;28;21019;-40
2022/04/18 02:18:02;;;;;;;3.73;3.13;;;8.00;60.60;;;;;;4983679;28;20556;-41
2022/04/18 02:20:28;;;;;;;5.00;2.80;;;8.00;60.90;;;;;;4981969;28;21208;-41
2022/04/18 02:22:59;;;;;;;4.57;3.10;;;8.00;61.00;;;;;;4981756;28;20470;-41
2022/04/18 02:25:26;;;;;;;2.70;2.50;;;7.90;60.90;;;;;;4978701;28;20486;-40
2022/04/18 02:27:52;;;;;;;5.20;2.90;;;7.90;61.10;;;;;;4981962;28;20477;-40
2022/04/18 02:30:19;;;;;;;3.87;3.23;;;7.90;61.10;;;;;;4979575;28;20859;-40
2022/04/18 02:32:49;;;;;;;3.20;2.70;;;7.90;61.50;;;;;;4979668;28;20473;-40
2022/04/18 02:35:22;;;;;;;6.37;2.90;;;7.90;61.40;;;;;;4983489;28;20470;-40
2022/04/18 02:37:49;;;;;;;3.27;3.00;;;7.90;61.30;;;;;;4977605;28;20470;-41
2022/04/18 02:40:16;;;;;;;3.40;3.03;;;7.90;61.80;;;;;;4980433;28;20889;-41
2022/04/18 02:42:43;;;;;;;3.33;2.57;;;7.90;61.60;;;;;;4962061;28;21077;-41
2022/04/18 02:45:14;;;;;;;4.30;3.60;;;7.90;61.60;;;;;;4979198;28;20580;-41
2022/04/18 02:47:41;;;;;;;2.97;2.00;;;7.90;61.40;;;;;;4981758;28;20544;-41
2022/04/18 02:50:08;;;;;;;2.80;2.60;;;7.90;61.80;;;;;;4980020;28;20466;-41
2022/04/18 02:52:35;;;;;;;2.73;2.53;;;7.90;61.50;;;;;;4977837;28;20448;-41
2022/04/18 02:55:06;;;;;;;4.07;2.60;;;7.90;61.90;;;;;;4983411;28;20500;-41
2022/04/18 02:57:33;;;;;;;2.53;2.33;;;7.90;61.80;;;;;;4985936;28;20467;-44
2022/04/18 03:00:00;;;;;;;4.30;3.00;;;8.00;61.90;;;;;;4980285;28;20975;-44
2022/04/18 03:02:26;;;;;;;3.00;2.70;;;8.00;61.90;;;;;;4979499;28;20467;-44
2022/04/18 03:04:53;;;;;;;2.77;2.53;;;8.00;61.80;;;;;;4981422;28;20585;-41
2022/04/18 03:07:20;;;;;;;3.17;2.53;;;8.00;61.70;;;;;;4983409;28;20465;-40
2022/04/18 03:09:47;;;;;;;3.63;2.63;;;8.00;61.70;;;;;;4978503;28;21059;-43
2022/04/18 03:12:14;;;;;;;3.47;2.57;;;8.00;61.70;;;;;;4982812;28;20461;-41
2022/04/18 03:14:40;;;;;;;4.40;2.80;;;8.00;61.80;;;;;;4979784;28;20744;-40
2022/04/18 03:17:07;;;;;;;2.50;2.30;;;8.10;62.10;;;;;;4980365;28;20470;-41
2022/04/18 03:19:34;;;;;;;3.00;2.57;;;8.10;62.00;;;;;;4980319;28;20807;-42
2022/04/18 03:22:01;;;;;;;2.57;2.37;;;8.10;61.80;;;;;;4978789;28;20465;-41
2022/04/18 03:24:28;;;;;;;2.63;2.13;;;8.10;61.70;;;;;;4980063;28;20526;-41
2022/04/18 03:26:54;;;;;;;2.33;2.10;;;8.00;61.60;;;;;;4979920;28;20462;-41
2022/04/18 03:29:21;;;;;;;2.40;2.10;;;8.00;61.60;;;;;;4981250;28;20458;-41
2022/04/18 03:31:49;;;;;;;3.27;2.50;;;8.00;61.90;;;;;;4979763;28;20486;-41
2022/04/18 03:34:16;;;;;;;2.70;2.40;;;8.00;61.90;;;;;;4968571;28;20462;-41
2022/04/18 03:42:13;;;;;;;2.53;2.30;;;8.10;62.00;;;;;;4981163;28;20465;-41
2022/04/18 03:44:43;;;;;;;2.60;2.37;;;8.10;62.00;;;;;;4980187;28;20484;-41
2022/04/18 03:47:11;;;;;;;2.70;2.40;;;8.00;62.00;;;;;;4976328;28;20822;-41
2022/04/18 03:49:38;;;;;;;2.60;2.40;;;8.00;62.10;;;;;;4980312;28;20802;-41
2022/04/18 03:52:06;;;;;;;2.83;2.50;;;8.00;61.60;;;;;;4977615;28;20548;-41
2022/04/18 03:54:36;;;;;;;2.37;2.13;;;8.00;61.60;;;;;;4983158;28;20465;-41
2022/04/18 03:57:03;;;;;;;2.50;2.30;;;8.10;62.10;;;;;;4983402;28;21045;-40
2022/04/18 03:59:30;;;;;;;4.17;2.80;;;8.10;62.20;;;;;;4984758;28;20459;-40
2022/04/18 04:01:57;;;;;;;2.87;2.10;;;8.10;62.10;;;;;;4982981;28;20553;-41
2022/04/18 04:04:25;;;;;;;4.93;2.40;;;8.10;62.50;;;;;;4986648;28;20528;-41
2022/04/18 04:06:51;;;;;;;2.33;2.13;;;8.10;62.50;;;;;;4967576;28;20469;-41
2022/04/18 04:09:18;;;;;;;6.23;2.63;;;8.10;62.30;;;;;;4966402;28;20461;-41
2022/04/18 04:11:45;;;;;;;3.73;2.60;;;8.10;62.20;;;;;;4982363;28;20858;-41
2022/04/18 04:14:12;;;;;;;3.53;2.80;;;8.10;62.10;;;;;;4982005;28;20462;-41
2022/04/18 04:16:39;;;;;;;2.30;2.10;;;8.00;62.20;;;;;;4981599;28;20465;-41
2022/04/18 04:19:06;;;;;;;4.80;3.10;;;8.00;62.40;;;;;;4972046;28;20556;-41
2022/04/18 04:21:35;;;;;;;3.37;2.47;;;8.00;62.50;;;;;;4982721;28;20491;-41
2022/04/18 04:24:02;;;;;;;4.50;3.13;;;8.00;62.80;;;;;;4983333;28;20474;-41
2022/04/18 04:26:29;;;;;;;2.57;2.30;;;7.90;62.80;;;;;;4984303;28;20468;-41
2022/04/18 04:28:56;;;;;;;3.10;2.60;;;7.90;63.10;;;;;;4985066;28;20483;-41
2022/04/18 04:31:23;;;;;;;3.03;2.73;;;7.80;63.10;;;;;;4964359;28;20486;-41
2022/04/18 04:33:50;;;;;;;3.20;2.90;;;7.80;63.00;;;;;;4985362;28;20512;-41
2022/04/18 04:36:17;;;;;;;4.07;2.80;;;7.80;63.50;;;;;;4980537;28;20478;-41
2022/04/18 04:38:44;;;;;;;4.23;2.77;;;7.80;63.60;;;;;;4985572;28;20474;-41
2022/04/18 04:41:11;;;;;;;4.03;2.77;;;7.70;63.40;;;;;;4983693;28;20557;-41
2022/04/18 04:43:41;;;;;;;4.63;3.80;;;7.70;63.50;;;;;;4981579;28;20470;-41
2022/04/18 04:46:08;;;;;;;3.27;3.07;;;7.60;63.50;;;;;;4979682;28;20490;-41
2022/04/18 04:48:35;;;;;;;3.33;2.40;;;7.60;63.60;;;;;;4980816;28;20455;-41
2022/04/18 04:51:02;;;;;;;5.00;2.70;;;7.60;63.60;;;;;;4983385;28;20554;-41
2022/04/18 04:53:29;;;;;;;2.53;2.33;;;7.60;63.90;;;;;;4982525;28;20484;-41
2022/04/18 04:55:56;;;;;;;2.77;2.53;;;7.60;63.80;;;;;;4982438;28;20474;-41
2022/04/18 04:58:22;;;;;;;2.73;2.53;;;7.50;64.10;;;;;;4983066;28;20981;-41
2022/04/18 05:00:49;;;;;;;2.77;2.57;;;7.50;64.20;;;;;;4984331;28;20473;-41
2022/04/18 05:03:16;;;;;;;2.80;2.60;;;7.50;64.40;;;;;;4983115;28;20616;-41
2022/04/18 05:05:43;;;;;;;2.97;2.70;;;7.40;64.70;;;;;;4980463;28;20494;-41
2022/04/18 05:08:10;;;;;;;3.90;3.53;;;7.40;64.60;;;;;;4981268;28;20494;-41
2022/04/18 05:10:37;;;;;;;6.70;4.77;;;7.40;64.90;;;;;;4982741;28;20753;-41
2022/04/18 05:13:04;;;;;;;5.00;4.47;;;7.40;64.90;;;;;;4981110;28;20830;-41
2022/04/18 05:15:32;;;;;;;5.47;4.97;;;7.40;65.00;;;;;;4984581;28;21034;-41
2022/04/18 05:17:59;;;;;;;6.13;4.73;;;7.40;65.50;;;;;;4982271;28;21038;-41
2022/04/18 05:20:27;;;;;;;4.07;3.67;;;7.50;65.60;;;;;;4968483;28;20531;-41
2022/04/18 05:22:53;;;;;;;3.20;2.77;;;7.40;65.50;;;;;;4983126;28;20476;-41
2022/04/18 05:25:21;;;;;;;4.17;3.20;;;7.40;65.80;;;;;;4980229;28;20530;-41
2022/04/18 05:27:48;;;;;;;2.97;2.70;;;7.40;65.70;;;;;;4984558;28;20459;-41
2022/04/18 05:30:15;;;;;;;4.83;3.67;;;7.50;65.70;;;;;;4980048;28;20469;-41
2022/04/18 05:32:43;;;;;;;4.20;2.90;;;7.50;65.50;;;;;;4982851;28;20495;-41
2022/04/18 05:35:10;;;;;;;3.13;2.73;;;7.50;66.40;;;;;;4963452;28;20470;-41
2022/04/18 05:37:36;;;;;;;5.40;2.60;;;7.50;66.10;;;;;;4982034;28;20463;-41
2022/04/18 05:40:04;;;;;;;3.40;2.60;;;7.60;66.00;;;;;;4967396;28;20477;-41
2022/04/18 05:42:31;;;;;;;3.70;3.40;;;7.60;66.50;;;;;;4981595;28;20462;-41
2022/04/18 05:44:57;;;;;;;3.70;2.70;;;7.70;66.50;;;;;;4963298;28;20486;-41
2022/04/18 05:47:24;;;;;;;3.40;3.10;;;7.70;66.30;;;;;;4982014;28;20557;-41
2022/04/18 05:49:51;;;;;;;4.10;3.10;;;7.70;66.50;;;;;;4979987;28;20462;-41
2022/04/18 05:52:18;;;;;;;3.27;2.40;;;7.80;66.20;;;;;;4981492;28;20470;-41
2022/04/18 05:54:44;;;;;;;2.87;2.67;;;7.80;65.90;;;;;;4982346;28;20468;-41
2022/04/18 05:57:11;;;;;;;2.90;2.60;;;7.90;64.90;;;;;;4981427;28;20975;-41
2022/04/18 05:59:38;;;;;;;4.00;3.63;;;8.00;63.60;;;;;;4981266;28;20854;-41
2022/04/18 06:02:05;;;;;;;2.73;2.53;;;8.10;61.50;;;;;;4966166;28;21013;-41
2022/04/18 06:04:31;;;;;;;3.20;2.47;;;8.20;60.40;;;;;;4967320;28;20457;-41
2022/04/18 06:06:58;;;;;;;3.03;2.70;;;8.30;59.80;;;;;;4979317;28;20462;-41
2022/04/18 06:09:25;;;;;;;2.67;2.47;;;8.40;59.60;;;;;;4970425;28;20464;-41
2022/04/18 06:11:51;;;;;;;2.33;2.13;;;8.50;59.50;;;;;;4981071;28;20457;-41
2022/04/18 06:14:18;;;;;;;3.57;2.47;;;8.60;59.00;;;;;;4980493;28;20507;-41
2022/04/18 06:16:45;;;;;;;4.27;2.37;;;8.70;58.30;;;;;;4983750;28;20466;-41
2022/04/18 06:19:12;;;;;;;2.43;2.20;;;8.90;58.70;;;;;;4976660;28;20513;-41
2022/04/18 06:21:38;;;;;;;3.70;2.20;;;9.00;59.60;;;;;;4978678;28;20927;-41
2022/04/18 06:24:05;;;;;;;6.73;2.30;;;9.20;58.80;;;;;;4979636;28;20490;-41
2022/04/18 06:26:32;;;;;;;2.70;2.10;;;9.30;57.20;;;;;;4981933;28;20848;-41
2022/04/18 06:28:59;;;;;;;3.17;2.23;;;9.40;56.70;;;;;;4979762;28;20476;-41
2022/04/18 06:31:27;;;;;;;2.90;2.23;;;9.50;56.80;;;;;;4975841;28;20492;-42
2022/04/18 06:33:54;;;;;;;3.67;2.33;;;9.50;56.10;;;;;;4979828;28;20464;-41
2022/04/18 06:36:20;;;;;;;2.50;1.83;;;9.70;55.80;;;;;;4983865;28;20474;-41
2022/04/18 06:38:47;;;;;;;3.90;2.43;;;9.80;56.80;;;;;;4985333;28;20463;-41
2022/04/18 06:41:14;;;;;;;2.40;1.80;;;9.90;56.10;;;;;;4982425;28;21034;-41
2022/04/18 06:43:41;;;;;;;6.57;2.20;;;10.00;55.80;;;;;;4983633;28;20899;-41
2022/04/18 06:46:08;;;;;;;3.93;2.20;;;10.00;54.10;;;;;;4979046;28;20497;-41
2022/04/18 06:48:35;;;;;;;2.53;2.33;;;10.00;53.50;;;;;;4979225;28;20463;-41
2022/04/18 06:51:01;;;;;;;2.50;2.20;;;10.10;52.70;;;;;;4983263;28;20470;-41
2022/04/18 06:53:28;;;;;;;2.40;2.10;;;10.20;52.80;;;;;;4961998;28;20450;-41
2022/04/18 06:58:40;;;;;;;3.80;2.43;;;10.40;51.80;;;;;;4983154;28;20465;-41
2022/04/18 07:01:07;;;;;;;3.10;2.23;;;10.50;51.80;;;;;;4979870;28;20850;-41
2022/04/18 07:03:34;;;;;;;3.47;2.23;;;10.60;51.70;;;;;;4979108;28;20471;-41
2022/04/18 07:06:01;;;;;;;2.40;2.10;;;10.70;51.60;;;;;;4979303;28;20494;-41
2022/04/18 07:08:28;;;;;;;3.27;2.60;;;10.90;51.40;;;;;;4980968;28;20481;-41
2022/04/18 07:10:54;;;;;;;4.40;2.67;;;11.00;51.10;;;;;;4979616;28;21020;-41
2022/04/18 07:13:21;;;;;;;2.77;2.57;;;11.10;50.00;;;;;;4977185;28;20758;-41
2022/04/18 07:15:48;;;;;;;3.03;2.40;;;11.20;50.00;;;;;;4979439;28;20513;-41
2022/04/18 07:18:15;;;;;;;4.30;3.87;;;11.20;48.90;;;;;;4977689;28;20750;-41
2022/04/18 07:20:42;;;;;;;2.73;2.53;;;11.40;49.30;;;;;;4978223;28;20464;-41
2022/04/18 07:23:11;;;;;;;3.23;2.70;;;11.50;50.40;;;;;;4980761;28;20461;-41
2022/04/18 07:25:38;;;;;;;2.60;2.40;;;11.70;50.60;;;;;;4979880;28;21334;-41
2022/04/18 07:28:05;;;;;;;4.70;2.87;;;11.90;50.50;;;;;;4978714;28;20450;-40
2022/04/18 07:30:32;;;;;;;7.93;2.63;;;12.10;49.60;;;;;;4978158;28;20465;-41
2022/04/18 07:32:59;;;;;;;5.40;2.67;;;12.20;48.30;;;;;;4977324;28;20474;-41
2022/04/18 07:35:26;;;;;;;2.50;2.07;;;12.30;47.80;;;;;;4983770;28;20493;-42
2022/04/18 07:40:39;;;;;;;3.30;2.50;;;12.50;48.60;;;;;;4978702;28;20850;-40
2022/04/18 07:43:09;;;;;;;3.83;2.77;;;12.80;49.40;;;;;;4982008;28;20553;-40
2022/04/18 07:45:37;;;;;;;3.40;2.90;;;13.00;49.40;;;;;;4977891;28;20582;-41
2022/04/18 07:48:07;;;;;;;2.53;2.30;;;13.30;48.40;;;;;;4980457;28;20529;-40
2022/04/18 07:53:19;;;;;;;3.23;2.80;;;13.70;47.00;;;;;;4982172;28;20494;-41
2022/04/18 07:55:47;;;;;;;3.63;2.67;;;14.00;47.70;;;;;;4981266;28;21186;-41
2022/04/18 07:58:13;;;;;;;2.23;1.93;;;14.20;46.80;;;;;;4979952;28;20582;-41
2022/04/18 08:00:40;;;;;;;3.90;2.60;;;14.40;46.90;;;;;;4978543;28;20467;-40
2022/04/18 08:03:07;;;;;;;3.80;2.60;;;14.50;46.80;;;;;;4977651;28;20472;-41
2022/04/18 08:05:34;;;;;;;3.83;2.70;;;14.70;46.10;;;;;;4981636;28;20487;-41
2022/04/18 08:08:01;;;;;;;2.93;2.63;;;14.90;44.00;;;;;;4978168;28;20838;-41
2022/04/18 08:10:29;;;;;;;3.00;2.70;;;15.00;43.00;;;;;;4979209;28;20486;-41
2022/04/18 08:12:56;;;;;;;3.97;2.27;;;15.10;42.90;;;;;;4984068;28;20481;-41
2022/04/18 08:15:22;;;;;;;3.80;2.80;;;15.30;44.50;;;;;;4984107;28;20458;-41
2022/04/18 08:17:49;;;;;;;3.43;2.60;;;15.50;44.10;;;;;;4978346;28;21003;-41
2022/04/18 08:20:16;;;;;;;3.40;2.50;;;15.70;43.10;;;;;;4967169;28;20467;-41
2022/04/18 08:22:43;;;;;;;4.07;2.90;;;16.00;42.50;;;;;;4962703;28;20498;-40
2022/04/18 08:25:10;;;;;;;3.80;2.90;;;16.20;41.90;;;;;;4975339;28;20471;-41
2022/04/18 08:27:37;;;;;;;3.50;2.57;;;16.40;41.00;;;;;;4980828;28;21032;-41
2022/04/18 08:30:05;;;;;;;4.20;2.90;;;16.50;40.80;;;;;;4983623;28;20451;-41
2022/04/18 08:32:39;;;;;;;3.50;3.20;;;16.80;42.00;;;;;;4976481;28;20897;-41
2022/04/18 08:35:06;;;;;;;6.20;3.33;;;16.90;40.40;;;;;;4979859;28;20506;-41
2022/04/18 08:37:34;;;;;;;6.30;3.00;;;17.10;40.30;;;;;;4978384;28;20454;-41
2022/04/18 08:40:05;;;;;;;4.77;3.10;;;17.30;40.90;;;;;;4961139;28;20473;-41
2022/04/18 08:42:37;;;;;;;4.73;3.17;;;17.50;39.50;;;;;;4980050;28;20555;-41
2022/04/18 08:45:07;;;;;;;3.60;2.97;;;17.70;37.60;;;;;;4982018;28;20474;-41
2022/04/18 08:53:10;;;;;;;4.20;2.90;;;18.20;38.70;;;;;;4984379;28;20466;-41
2022/04/18 08:55:37;;;;;;;3.40;2.80;;;18.40;37.10;;;;;;4957728;28;20470;-41
2022/04/18 08:58:05;;;;;;;3.03;2.63;;;18.60;36.70;;;;;;4981925;28;20468;-41
2022/04/18 09:00:31;;;;;;;3.63;2.70;;;18.90;36.30;;;;;;4982315;28;21034;-41
2022/04/18 09:02:58;;;;;;;3.60;2.80;;;19.10;36.30;;;;;;4985859;28;20462;-41
2022/04/18 09:05:25;;;;;;;4.03;3.10;;;19.30;35.80;;;;;;4984038;28;20459;-41
2022/04/18 09:08:07;;;;;;;5.40;3.40;;;19.40;34.90;;;;;;4985335;28;20834;-42
2022/04/18 09:10:35;;;;;;;3.87;3.50;;;19.70;35.60;;;;;;4985563;28;20516;-42
2022/04/18 09:13:02;;;;;;;3.63;3.17;;;19.90;35.80;;;;;;4985181;28;20519;-42
2022/04/18 09:15:37;;;;;;;3.70;2.83;;;20.20;35.30;;;;;;4984072;28;20520;-42
2022/04/18 09:18:08;;;;;;;4.03;3.00;;;20.40;34.60;;;;;;4984233;28;20995;-42
2022/04/18 09:21:01;;;;;;;3.57;3.07;;;20.70;34.30;;;;;;4982969;28;20487;-42
2022/04/18 09:23:30;;;;;;;5.10;3.00;;;21.00;35.00;;;;;;4979093;28;20491;-42
2022/04/18 09:26:04;;;;;;;4.37;3.00;;;21.20;33.20;;;;;;4976273;28;20502;-42
2022/04/18 09:28:37;;;;;;;4.67;3.13;;;21.50;33.70;;;;;;4984665;28;20514;-42
2022/04/18 09:31:12;;;;;;;3.70;3.07;;;21.70;31.60;;;;;;4963568;28;20484;-42
2022/04/18 09:33:43;;;;;;;3.20;2.80;;;21.60;31.20;;;;;;4976997;28;20476;-42
2022/04/18 09:36:18;;;;;;;3.83;3.10;;;21.70;31.00;;;;;;4980872;28;20568;-42
2022/04/18 09:38:49;;;;;;;3.70;2.50;;;21.70;31.90;;;;;;4982714;28;20463;-42
2022/04/18 09:41:24;;;;;;;4.10;2.97;;;21.90;32.60;;;;;;4982638;28;20490;-42
2022/04/18 09:43:52;;;;;;;6.13;2.90;;;22.10;32.90;;;;;;4979615;28;20980;-42
2022/04/18 09:46:20;;;;;;;2.90;2.10;;;22.30;32.10;;;;;;4982983;28;20577;-42
2022/04/18 09:48:49;;;;;;;4.63;3.27;;;22.40;30.20;;;;;;4984166;28;20470;-42
2022/04/18 09:51:35;;;;;;;6.30;3.40;;;22.50;29.20;;;;;;4966116;28;20981;-42
2022/04/18 09:54:03;;;;;;;2.70;2.50;;;22.60;30.30;;;;;;4982477;28;20471;-42
2022/04/18 09:56:30;;;;;;;4.43;3.27;;;23.00;30.90;;;;;;4984353;28;20484;-42
2022/04/18 09:58:58;;;;;;;4.00;2.90;;;23.00;28.20;;;;;;4965562;28;20831;-42
2022/04/18 10:01:35;;;;;;;4.10;2.50;;;23.20;28.70;;;;;;4967738;28;20547;-42
2022/04/18 10:04:05;;;;;;;4.23;2.50;;;23.40;28.00;;;;;;4984508;28;20465;-42
2022/04/18 10:06:33;;;;;;;3.13;2.83;;;23.70;29.10;;;;;;4983814;28;20488;-42
2022/04/18 10:09:00;;;;;;;3.97;2.93;;;24.00;28.20;;;;;;4978766;28;21048;-42
2022/04/18 10:11:28;;;;;;;3.63;2.80;;;24.20;27.40;;;;;;4959139;28;20552;-42
2022/04/18 10:13:55;;;;;;;3.60;2.90;;;24.20;26.60;;;;;;4982625;28;20483;-42
2022/04/18 10:16:23;;;;;;;3.20;2.90;;;24.40;27.90;;;;;;4982401;28;20502;-42
2022/04/18 10:18:54;;;;;;;3.13;2.73;;;24.60;28.10;;;;;;4975739;28;20461;-42
2022/04/18 10:21:30;;;;;;;2.43;2.23;;;24.70;27.00;;;;;;4982826;28;20525;-42
2022/04/18 10:24:12;;;;;;;3.47;2.30;;;24.90;26.90;;;;;;4979854;28;20912;-42
2022/04/18 10:27:09;;;;;;;3.20;2.90;;;25.00;26.60;;;;;;4978609;28;20861;-41
2022/04/18 10:29:40;;;;;;;3.83;2.93;;;24.90;26.10;;;;;;4979814;28;20456;-41
2022/04/18 10:32:08;;;;;;;2.60;2.23;;;25.00;27.00;;;;;;4982669;28;20492;-42
2022/04/18 10:34:37;;;;;;;3.43;2.83;;;24.90;26.80;;;;;;4983472;28;20542;-42
2022/04/18 10:37:09;;;;;;;2.80;2.50;;;25.00;27.00;;;;;;4981433;28;20471;-42
2022/04/18 10:39:38;;;;;;;2.37;2.17;;;25.10;26.00;;;;;;4963502;28;20519;-42
2022/04/18 10:42:42;;;;;;;3.20;2.63;;;25.20;25.50;;;;;;4975504;28;20484;-42
2022/04/18 10:45:11;;;;;;;3.27;2.60;;;24.90;25.30;;;;;;4977853;28;20987;-43
2022/04/18 10:48:09;;;;;;;3.50;2.10;;;25.00;26.70;;;;;;4977781;28;20665;-42
2022/04/18 10:50:37;;;;;;;2.90;2.40;;;25.30;27.20;;;;;;4971307;28;20966;-43
2022/04/18 10:53:24;;;;;;;2.50;2.00;;;25.30;27.50;;;;;;4977570;28;20475;-43
2022/04/18 10:55:52;;;;;;;3.23;2.37;;;25.30;25.80;;;;;;4973819;28;20498;-42
2022/04/18 10:58:23;;;;;;;2.07;1.80;;;25.30;26.60;;;;;;4980110;28;20469;-42
2022/04/18 11:01:02;;;;;;;3.93;2.17;;;25.30;25.90;;;;;;4978265;28;20462;-41
2022/04/18 11:03:38;;;;;;;3.73;2.10;;;25.10;25.70;;;;;;4961592;28;20464;-43
2022/04/18 11:06:09;;;;;;;3.03;2.60;;;25.00;25.60;;;;;;4980163;28;20499;-42
2022/04/18 11:08:38;;;;;;;3.13;2.43;;;24.90;25.80;;;;;;4962243;28;20499;-42
2022/04/18 11:11:07;;;;;;;3.20;2.30;;;24.60;25.80;;;;;;4980912;28;20462;-42
2022/04/18 11:13:33;;;;;;;2.70;2.50;;;24.50;26.60;;;;;;4981867;28;20795;-42
2022/04/18 11:16:24;;;;;;;2.80;2.60;;;24.40;26.60;;;;;;4962504;28;20891;-42
2022/04/18 11:19:09;;;;;;;2.70;2.03;;;24.50;27.80;;;;;;4937237;28;20827;-42
2022/04/18 11:21:57;;;;;;;2.97;1.90;;;24.40;27.10;;;;;;4979160;28;20497;-42
2022/04/18 11:24:51;;;;;;;3.50;2.50;;;24.20;26.30;;;;;;4980226;28;20839;-42
2022/04/18 11:27:29;;;;;;;2.53;2.10;;;24.00;26.60;;;;;;4979968;28;20543;-42
2022/04/18 11:30:03;;;;;;;3.13;2.50;;;24.00;27.90;;;;;;4981891;28;20523;-42
2022/04/18 11:32:41;;;;;;;4.30;2.60;;;23.80;26.90;;;;;;4984058;28;20561;-42
2022/04/18 11:35:13;;;;;;;2.50;2.30;;;23.70;27.80;;;;;;4978121;28;21033;-42
2022/04/18 11:37:45;;;;;;;2.73;1.87;;;23.60;28.20;;;;;;4981881;28;20462;-42
2022/04/18 11:40:13;;;;;;;4.13;2.60;;;23.50;27.70;;;;;;4977487;28;20477;-42
2022/04/18 11:42:41;;;;;;;2.77;2.30;;;23.20;27.80;;;;;;4983514;28;20819;-42
2022/04/18 11:45:10;;;;;;;3.13;2.83;;;23.10;28.10;;;;;;4959513;28;20466;-42
2022/04/18 11:47:37;;;;;;;3.20;2.90;;;23.00;28.30;;;;;;4982064;28;20488;-42
2022/04/18 11:50:05;;;;;;;4.60;2.47;;;22.90;28.40;;;;;;4980242;28;20469;-41
2022/04/18 11:52:38;;;;;;;2.40;2.20;;;22.80;28.00;;;;;;4984154;28;20556;-42
2022/04/18 11:55:14;;;;;;;2.77;2.03;;;22.70;28.80;;;;;;4979355;28;20476;-41
2022/04/18 11:57:46;;;;;;;5.30;2.30;;;22.50;28.50;;;;;;4961638;28;20461;-41
2022/04/18 12:06:44;;;;;;;6.23;3.30;;;22.50;30.50;;;;;;4979061;28;20560;-41
2022/04/18 12:08:39;;;;;;;3.90;3.40;;;22.30;30.20;;;;;;4979825;28;20477;-42
2022/04/18 12:11:05;;;;;;;50.17;7.33;;;22.30;31.30;;;;;;4977597;28;20543;-42
2022/04/18 12:13:32;;;;;;;5.23;2.93;;;22.30;30.70;;;;;;4972597;28;20502;-42
2022/04/18 12:16:00;;;;;;;5.77;3.67;;;22.30;31.50;;;;;;4978756;28;20483;-42
2022/04/18 12:18:26;;;;;;;4.07;2.40;;;22.40;31.20;;;;;;4978972;28;20519;-42
2022/04/18 12:20:53;;;;;;;4.37;2.87;;;22.30;29.10;;;;;;4968241;28;20563;-42
2022/04/18 12:23:23;;;;;;;4.37;3.20;;;22.30;31.30;;;;;;4986494;28;20476;-42
2022/04/18 12:25:55;;;;;;;4.10;2.90;;;22.40;31.70;;;;;;4981983;28;20949;-42
2022/04/18 12:28:28;;;;;;;4.23;2.50;;;22.40;30.70;;;;;;4985061;28;20872;-42
2022/04/18 12:30:56;;;;;;;2.90;2.20;;;22.40;29.90;;;;;;4986144;28;20520;-42
2022/04/18 12:33:30;;;;;;;3.03;2.73;;;22.30;29.90;;;;;;4984433;28;20466;-42
2022/04/18 12:36:01;;;;;;;2.87;2.30;;;22.30;31.70;;;;;;4967941;28;20983;-42
2022/04/18 12:38:35;;;;;;;2.37;2.17;;;22.30;30.70;;;;;;4980718;28;21016;-42
2022/04/18 12:41:03;;;;;;;3.70;2.23;;;22.30;30.50;;;;;;4983363;28;20479;-42
2022/04/18 12:43:31;;;;;;;2.63;2.10;;;22.30;30.60;;;;;;4986092;28;20988;-42
2022/04/18 12:45:59;;;;;;;1.90;1.70;;;22.30;29.60;;;;;;4980697;28;20483;-42
2022/04/18 12:48:30;;;;;;;3.53;1.97;;;22.40;30.70;;;;;;4984407;28;20493;-42
2022/04/18 12:50:58;;;;;;;2.80;2.07;;;22.50;31.90;;;;;;4984631;28;20468;-42
2022/04/18 12:53:49;;;;;;;3.70;3.10;;;22.50;31.10;;;;;;4979273;28;20475;-42
2022/04/18 12:56:23;;;;;;;5.17;2.40;;;22.50;31.00;;;;;;4985284;28;20468;-42
2022/04/18 12:58:53;;;;;;;3.23;2.07;;;22.50;31.60;;;;;;4985982;28;20963;-42
2022/04/18 13:01:30;;;;;;;2.80;1.90;;;22.50;31.20;;;;;;4980592;28;20789;-42
2022/04/18 13:03:56;;;;;;;2.13;1.60;;;22.20;28.80;;;;;;4984283;28;20467;-42
2022/04/18 13:06:23;;;;;;;2.60;1.87;;;21.90;29.30;;;;;;4985157;28;20932;-42
2022/04/18 13:09:02;;;;;;;2.33;2.13;;;21.70;29.80;;;;;;4982081;28;20559;-42
2022/04/18 13:11:45;;;;;;;1.90;1.80;;;21.70;29.50;;;;;;4984081;28;20474;-41
2022/04/18 13:14:13;;;;;;;2.13;2.03;;;21.70;30.00;;;;;;4983756;28;20475;-41
2022/04/18 13:16:42;;;;;;;2.70;2.40;;;21.70;30.40;;;;;;4981412;28;20475;-41
2022/04/18 13:19:12;;;;;;;2.50;1.97;;;21.60;30.70;;;;;;4978397;28;20841;-42
2022/04/18 13:21:40;;;;;;;4.30;2.27;;;21.70;31.90;;;;;;4979254;28;20467;-41
2022/04/18 13:24:08;;;;;;;2.73;2.40;;;21.80;33.20;;;;;;4986187;28;20509;-41
2022/04/18 13:26:36;;;;;;;3.90;2.60;;;21.90;33.40;;;;;;4983521;28;21048;-41
2022/04/18 13:29:04;;;;;;;3.40;2.30;;;22.10;31.60;;;;;;4983183;28;20466;-41
2022/04/18 13:31:31;;;;;;;2.27;2.10;;;22.10;30.40;;;;;;4982473;28;20860;-41